Time;durP1;ratioP1;P1;durP2;ratioP2;P2;SDS_P1;SDS_P2;PMS_P1;PMS_P2;Temp;Humidity;BMP_temperature;BMP_pressure;BME280_temperature;BME280_humidity;BME280_pressure;Samples;Min_cycle;Max_cycle;Signal;HPM_P1;HPM_P2
2022/08/09 09:38:38;;;;;;;10.97;9.80;;;25.80;10.50;;;;;;5101790;22;20571;-80
2022/08/09 09:41:05;;;;;;;11.67;11.17;;;26.30;9.90;;;;;;5085990;28;20468;-81
2022/08/09 09:43:33;;;;;;;11.20;10.50;;;26.50;8.90;;;;;;5080806;28;20516;-77
2022/08/09 09:46:02;;;;;;;11.07;10.20;;;26.80;8.50;;;;;;5081493;28;20432;-81
2022/08/09 09:48:28;;;;;;;10.20;9.60;;;27.10;7.50;;;;;;5098140;28;20428;-79
2022/08/09 09:50:54;;;;;;;11.17;10.37;;;27.10;7.40;;;;;;5090568;28;20986;-80
2022/08/09 09:53:23;;;;;;;10.47;9.97;;;27.30;6.40;;;;;;5060714;28;20919;-80
2022/08/09 09:55:53;;;;;;;10.30;9.70;;;27.40;6.50;;;;;;5060637;28;20418;-81
2022/08/09 09:58:19;;;;;;;10.23;9.83;;;27.50;6.40;;;;;;5078024;28;20448;-82
2022/08/09 10:00:55;;;;;;;9.90;9.50;;;27.40;6.50;;;;;;5080823;28;20828;-81
2022/08/09 10:03:43;;;;;;;10.50;9.90;;;27.60;6.50;;;;;;5082349;28;20412;-79
2022/08/09 10:06:10;;;;;;;9.37;8.70;;;27.70;6.70;;;;;;5098918;28;20419;-78
2022/08/09 10:08:35;;;;;;;10.13;9.70;;;28.00;5.90;;;;;;5080496;28;20429;-80
2022/08/09 10:11:25;;;;;;;10.23;9.83;;;28.00;5.90;;;;;;5111472;28;20416;-79
2022/08/09 10:13:52;;;;;;;10.97;10.53;;;28.10;5.90;;;;;;5093343;28;20199;-80
2022/08/09 10:16:37;;;;;;;10.50;10.10;;;28.20;5.70;;;;;;5074819;28;20413;-79
2022/08/09 10:19:08;;;;;;;9.43;9.00;;;28.20;5.50;;;;;;5070307;28;20453;-81
2022/08/09 10:21:44;;;;;;;10.67;10.17;;;28.20;6.20;;;;;;5080753;28;21021;-79
2022/08/09 10:24:10;;;;;;;10.20;9.70;;;28.10;5.80;;;;;;5079870;28;20425;-80
2022/08/09 10:26:36;;;;;;;9.80;9.30;;;28.40;5.40;;;;;;5080527;28;20918;-80
2022/08/09 10:29:02;;;;;;;10.57;10.27;;;28.20;5.50;;;;;;5079698;28;20440;-81
2022/08/09 10:31:27;;;;;;;9.87;9.47;;;28.00;5.70;;;;;;5098061;28;20216;-82
2022/08/09 10:33:53;;;;;;;10.63;10.33;;;28.00;5.30;;;;;;5079635;28;20420;-79
2022/08/09 10:36:19;;;;;;;9.97;9.57;;;28.20;5.00;;;;;;5080159;28;20175;-82
2022/08/09 10:38:46;;;;;;;10.80;10.10;;;28.50;4.80;;;;;;5099888;28;20651;-82
2022/08/09 10:41:13;;;;;;;9.90;9.50;;;28.60;4.60;;;;;;5074191;28;20203;-81
2022/08/09 10:43:45;;;;;;;9.83;9.43;;;28.60;4.50;;;;;;5061429;28;20414;-82
2022/08/09 10:46:38;;;;;;;9.57;9.27;;;28.70;4.10;;;;;;5061185;28;20418;-83
2022/08/09 10:49:08;;;;;;;10.70;9.87;;;28.80;3.50;;;;;;5080412;28;20456;-81
2022/08/09 10:52:04;;;;;;;9.47;9.17;;;28.80;3.30;;;;;;5061510;28;20409;-82
2022/08/09 10:54:29;;;;;;;9.57;9.27;;;28.60;3.40;;;;;;5095623;28;20420;-82
2022/08/09 10:57:12;;;;;;;9.80;9.40;;;28.50;3.60;;;;;;5065420;28;20492;-79
2022/08/09 10:59:38;;;;;;;10.70;9.90;;;28.80;3.40;;;;;;5075518;28;20172;-81
2022/08/09 11:02:12;;;;;;;9.10;8.80;;;28.70;3.70;;;;;;5076433;28;20413;-80
2022/08/09 11:04:37;;;;;;;9.67;9.17;;;28.80;3.90;;;;;;5077381;28;20755;-79
2022/08/09 11:07:03;;;;;;;10.27;9.87;;;28.70;3.60;;;;;;5059074;28;20444;-78
2022/08/09 11:09:41;;;;;;;9.63;9.10;;;28.40;4.00;;;;;;5075608;28;20412;-78
2022/08/09 11:12:12;;;;;;;8.47;7.60;;;28.60;3.60;;;;;;5096157;28;20221;-77
2022/08/09 11:14:53;;;;;;;23.37;11.63;;;29.00;5.50;;;;;;5078839;28;20487;-75
2022/08/09 11:18:47;;;;;;;4.83;4.43;;;28.00;6.30;;;;;;5113564;27;20692;-59
2022/08/09 11:21:53;;;;;;;11.87;5.30;;;27.40;7.70;;;;;;5077110;28;20427;-58
2022/08/09 11:24:20;;;;;;;6.10;5.80;;;27.30;8.70;;;;;;5022194;28;20186;-60
2022/08/09 11:26:49;;;;;;;5.10;4.70;;;27.40;7.30;;;;;;5070350;28;20393;-62
2022/08/09 11:29:53;;;;;;;6.03;5.23;;;27.20;5.50;;;;;;5079377;28;20446;-64
2022/08/09 11:32:40;;;;;;;5.50;4.70;;;27.20;7.00;;;;;;5088454;28;20405;-63
2022/08/09 11:35:17;;;;;;;5.60;4.90;;;27.00;8.60;;;;;;5088038;28;20412;-70
2022/08/09 11:37:45;;;;;;;6.90;5.93;;;27.20;6.60;;;;;;5087822;28;20459;-67
2022/08/09 11:40:16;;;;;;;4.57;4.37;;;27.50;6.20;;;;;;5070916;28;20409;-65
2022/08/09 11:42:45;;;;;;;5.00;4.70;;;27.60;3.30;;;;;;5070945;28;20538;-65
2022/08/09 11:45:51;;;;;;;5.70;5.20;;;27.50;5.80;;;;;;5054640;28;20417;-65
2022/08/09 11:48:27;;;;;;;5.00;4.70;;;27.40;5.80;;;;;;5057251;28;20482;-65
2022/08/09 11:51:00;;;;;;;4.63;4.33;;;26.90;7.10;;;;;;5065406;28;20419;-64
2022/08/09 11:53:29;;;;;;;5.30;5.00;;;26.90;5.30;;;;;;5065777;28;20409;-65
2022/08/09 11:55:57;;;;;;;5.63;4.70;;;27.10;4.00;;;;;;5050588;28;20924;-62
2022/08/09 11:58:23;;;;;;;5.30;5.00;;;27.00;4.60;;;;;;5050009;28;20535;-64
2022/08/09 12:00:58;;;;;;;4.93;4.63;;;26.80;8.10;;;;;;5050203;28;20878;-64
2022/08/09 12:03:27;;;;;;;5.20;4.90;;;26.60;7.00;;;;;;5064615;28;20923;-64
2022/08/09 12:05:55;;;;;;;4.20;4.00;;;26.80;7.40;;;;;;5103715;28;20465;-64
2022/08/09 12:08:23;;;;;;;4.13;3.93;;;26.60;5.80;;;;;;5103969;28;20956;-64
2022/08/09 12:10:52;;;;;;;5.10;4.90;;;26.80;6.50;;;;;;5062589;28;20435;-62
2022/08/09 12:13:38;;;;;;;4.50;4.30;;;26.60;6.30;;;;;;5069560;28;20415;-59
2022/08/09 12:16:09;;;;;;;5.07;4.70;;;26.80;5.40;;;;;;5088184;28;20404;-58
2022/08/09 12:18:38;;;;;;;4.80;4.60;;;27.10;6.70;;;;;;5060879;28;20465;-57
2022/08/09 12:21:06;;;;;;;4.93;4.73;;;27.20;5.90;;;;;;5069121;28;21022;-62
2022/08/09 12:23:32;;;;;;;8.83;8.27;;;27.00;6.80;;;;;;5069376;28;20416;-67
2022/08/09 12:25:58;;;;;;;7.90;7.60;;;27.00;5.10;;;;;;5069876;28;20444;-60
2022/08/09 12:28:25;;;;;;;8.13;7.73;;;27.40;4.20;;;;;;5066079;28;20802;-60
2022/08/09 12:30:52;;;;;;;10.80;8.77;;;27.80;3.30;;;;;;5051522;28;20199;-60
2022/08/09 12:33:19;;;;;;;8.80;8.40;;;28.30;2.60;;;;;;5051962;28;20941;-60
2022/08/09 12:35:45;;;;;;;9.23;8.73;;;28.60;2.30;;;;;;5071788;28;20415;-60
2022/08/09 12:38:29;;;;;;;9.80;9.40;;;28.70;2.10;;;;;;5055855;28;20484;-60
2022/08/09 12:40:56;;;;;;;9.40;9.00;;;28.80;2.00;;;;;;5055577;28;20416;-60
2022/08/09 12:43:25;;;;;;;10.80;10.40;;;28.70;2.30;;;;;;5056078;28;20956;-60
2022/08/09 12:45:52;;;;;;;9.90;9.60;;;28.60;2.10;;;;;;5056144;28;20917;-60
2022/08/09 12:48:19;;;;;;;10.10;9.80;;;28.80;1.60;;;;;;5056271;28;20850;-60
2022/08/09 12:50:45;;;;;;;10.57;10.17;;;29.00;1.40;;;;;;5055348;28;20508;-60
2022/08/09 12:53:32;;;;;;;10.17;9.80;;;29.00;1.50;;;;;;5055990;28;20498;-60
2022/08/09 12:56:13;;;;;;;10.53;10.10;;;29.00;1.00;;;;;;5052563;28;20429;-60
2022/08/09 12:59:00;;;;;;;11.03;10.63;;;29.00;1.00;;;;;;5088378;28;20466;-60
2022/08/09 13:01:26;;;;;;;10.93;10.53;;;28.80;1.00;;;;;;5055212;28;20417;-60
2022/08/09 13:04:03;;;;;;;10.70;10.30;;;28.70;1.40;;;;;;5055615;28;20789;-60
2022/08/09 13:06:42;;;;;;;10.83;10.43;;;28.80;1.00;;;;;;5055672;28;20424;-60
2022/08/09 13:09:28;;;;;;;10.80;10.30;;;28.80;1.00;;;;;;5055584;28;20501;-60
2022/08/09 13:12:00;;;;;;;11.37;10.67;;;28.80;1.00;;;;;;5055420;28;20945;-60
2022/08/09 13:14:27;;;;;;;11.80;11.20;;;28.80;1.00;;;;;;5055515;28;20417;-60
2022/08/09 13:17:04;;;;;;;10.80;10.10;;;29.00;1.00;;;;;;5055490;28;20838;-60
2022/08/09 13:19:40;;;;;;;11.80;11.20;;;29.10;1.00;;;;;;5055133;28;20782;-60
2022/08/09 13:22:26;;;;;;;11.73;11.13;;;29.20;1.00;;;;;;5055519;28;20420;-59
2022/08/09 13:24:51;;;;;;;12.07;11.37;;;29.20;1.10;;;;;;5073054;28;20448;-60
2022/08/09 13:27:29;;;;;;;11.20;10.70;;;29.10;1.00;;;;;;5055354;28;20843;-59
2022/08/09 13:30:00;;;;;;;12.03;11.43;;;29.20;1.00;;;;;;5055022;28;20179;-59
2022/08/09 13:32:45;;;;;;;10.97;10.57;;;29.20;1.00;;;;;;5055574;28;20913;-60
2022/08/09 13:35:12;;;;;;;11.03;10.33;;;29.30;1.00;;;;;;5051579;28;20414;-59
2022/08/09 13:37:38;;;;;;;10.73;10.27;;;29.20;1.00;;;;;;5080647;28;20467;-59
2022/08/09 13:40:05;;;;;;;10.63;10.23;;;29.10;1.00;;;;;;5070465;28;20839;-59
2022/08/09 13:42:31;;;;;;;10.93;10.53;;;29.20;1.00;;;;;;5061772;28;20661;-60
2022/08/09 13:44:56;;;;;;;10.20;9.80;;;29.30;1.00;;;;;;5054972;28;20429;-60
2022/08/09 13:47:22;;;;;;;9.60;9.20;;;29.20;1.00;;;;;;5055674;28;20175;-60
2022/08/09 13:49:48;;;;;;;10.40;10.00;;;29.20;1.00;;;;;;5055205;28;20179;-60
2022/08/09 13:52:13;;;;;;;9.40;9.10;;;29.20;1.00;;;;;;5054816;28;20175;-60
2022/08/09 13:54:39;;;;;;;10.17;9.77;;;29.10;1.00;;;;;;5055002;28;20179;-60
2022/08/09 13:57:06;;;;;;;10.57;10.03;;;29.00;1.00;;;;;;5054745;28;20351;-61
2022/08/09 13:59:33;;;;;;;10.40;9.90;;;29.20;1.00;;;;;;5054917;28;20405;-60
2022/08/09 14:01:58;;;;;;;21.97;20.27;;;29.10;1.00;;;;;;5054545;28;20955;-60
2022/08/09 14:04:24;;;;;;;10.17;9.83;;;29.00;1.00;;;;;;5054653;28;20552;-62
2022/08/09 14:06:58;;;;;;;10.80;10.40;;;29.10;1.00;;;;;;5054484;28;20208;-61
2022/08/09 14:09:24;;;;;;;10.20;9.80;;;29.00;1.00;;;;;;5054901;28;20179;-61
2022/08/09 14:11:51;;;;;;;10.47;10.07;;;29.00;1.00;;;;;;5054233;28;20424;-61
2022/08/09 14:14:17;;;;;;;9.97;9.67;;;29.00;1.00;;;;;;5054867;28;20451;-61
2022/08/09 14:16:42;;;;;;;9.67;9.27;;;29.10;1.00;;;;;;5054122;28;20461;-61
2022/08/09 14:19:08;;;;;;;10.63;10.23;;;29.20;1.00;;;;;;5054673;28;20175;-61
2022/08/09 14:21:34;;;;;;;10.37;9.77;;;29.20;1.00;;;;;;5054051;28;20175;-61
2022/08/09 14:24:00;;;;;;;9.70;9.40;;;29.10;1.00;;;;;;5054447;28;20258;-62
2022/08/09 14:26:29;;;;;;;10.93;10.37;;;29.00;1.00;;;;;;5054628;28;20417;-62
2022/08/09 14:28:54;;;;;;;10.27;9.77;;;29.00;1.00;;;;;;5054214;28;20709;-59
2022/08/09 14:31:20;;;;;;;10.17;9.77;;;28.90;1.00;;;;;;5054240;28;20489;-59
2022/08/09 14:33:46;;;;;;;10.20;9.80;;;28.90;1.00;;;;;;5054036;28;20175;-59
2022/08/09 14:36:11;;;;;;;10.33;10.03;;;28.80;1.00;;;;;;5054276;28;20312;-59
2022/08/09 14:38:37;;;;;;;9.73;9.43;;;29.00;1.00;;;;;;5054533;28;20256;-59
2022/08/09 14:41:05;;;;;;;10.10;9.70;;;29.00;1.00;;;;;;5054353;28;20171;-59
2022/08/09 14:43:31;;;;;;;10.63;10.23;;;29.00;1.00;;;;;;5054599;28;20178;-59
2022/08/09 14:45:57;;;;;;;10.30;9.90;;;28.90;1.00;;;;;;5054537;28;20410;-59
2022/08/09 14:48:22;;;;;;;10.17;9.77;;;29.00;1.00;;;;;;5054442;28;20936;-62
2022/08/09 14:50:48;;;;;;;10.50;10.10;;;28.90;1.00;;;;;;5054067;28;20180;-62
2022/08/09 14:53:19;;;;;;;10.60;10.10;;;29.00;1.00;;;;;;5054129;28;20176;-61
2022/08/09 14:55:45;;;;;;;9.50;9.20;;;28.90;1.00;;;;;;5053833;28;20182;-62
2022/08/09 14:58:11;;;;;;;10.00;9.70;;;28.90;1.00;;;;;;5053670;28;20461;-62
2022/08/09 15:00:37;;;;;;;9.60;9.30;;;28.90;1.00;;;;;;5046667;28;20198;-62
2022/08/09 15:03:07;;;;;;;9.43;9.03;;;28.90;1.00;;;;;;5053545;28;20909;-61
2022/08/09 15:05:34;;;;;;;10.47;9.97;;;28.80;1.00;;;;;;5067418;28;20741;-61
2022/08/09 15:07:59;;;;;;;10.03;9.67;;;28.70;1.00;;;;;;5054401;28;20429;-61
2022/08/09 15:10:27;;;;;;;9.70;9.30;;;28.70;1.00;;;;;;5053962;28;20413;-62
2022/08/09 15:12:53;;;;;;;9.80;9.30;;;28.80;1.00;;;;;;5053950;28;20171;-59
2022/08/09 15:15:20;;;;;;;12.07;9.47;;;28.70;1.00;;;;;;5072313;28;20873;-58
2022/08/09 15:17:46;;;;;;;9.03;8.73;;;28.70;1.00;;;;;;5053615;28;20515;-62
2022/08/09 15:20:11;;;;;;;10.10;9.70;;;28.70;1.00;;;;;;5053926;28;20413;-62
2022/08/09 15:22:38;;;;;;;9.30;9.00;;;28.70;1.00;;;;;;5053890;28;20422;-61
2022/08/09 15:25:05;;;;;;;10.20;9.80;;;28.70;1.00;;;;;;5053714;28;20658;-62
2022/08/09 15:27:31;;;;;;;9.53;9.10;;;28.70;1.00;;;;;;5053938;28;20449;-61
2022/08/09 15:29:57;;;;;;;10.30;9.80;;;28.70;1.00;;;;;;5053649;28;20452;-62
2022/08/09 15:32:24;;;;;;;10.00;9.50;;;28.70;1.00;;;;;;5053681;28;20229;-62
2022/08/09 15:34:51;;;;;;;10.27;9.70;;;28.80;1.00;;;;;;5053677;28;20183;-62
2022/08/09 15:37:35;;;;;;;10.20;9.80;;;28.90;1.00;;;;;;5072018;28;20560;-62
2022/08/09 15:40:05;;;;;;;11.13;10.43;;;29.00;1.00;;;;;;5053063;28;20414;-61
2022/08/09 15:42:32;;;;;;;9.80;9.40;;;28.90;1.00;;;;;;5053489;28;20427;-61
2022/08/09 15:44:58;;;;;;;10.30;9.90;;;29.00;1.00;;;;;;5053652;28;20445;-62
2022/08/09 15:47:25;;;;;;;9.97;9.57;;;29.00;1.00;;;;;;5053544;28;20478;-59
2022/08/09 15:49:52;;;;;;;10.33;9.93;;;29.00;1.00;;;;;;5053371;28;20526;-59
2022/08/09 15:52:18;;;;;;;9.80;9.50;;;28.90;1.00;;;;;;5053610;28;20447;-58
2022/08/09 15:54:43;;;;;;;10.23;9.63;;;29.00;1.00;;;;;;5053071;28;20413;-58
2022/08/09 15:57:09;;;;;;;10.30;9.57;;;29.00;1.00;;;;;;5053508;28;20252;-57
2022/08/09 15:59:35;;;;;;;10.70;10.30;;;29.00;1.00;;;;;;5053507;28;20648;-58
2022/08/09 16:02:01;;;;;;;9.60;9.20;;;28.80;1.00;;;;;;5070982;28;20272;-58
2022/08/09 16:04:27;;;;;;;9.37;9.07;;;28.90;1.00;;;;;;5055324;28;20232;-58
2022/08/09 16:06:52;;;;;;;9.77;9.47;;;28.80;1.00;;;;;;5057125;28;20425;-58
2022/08/09 16:09:18;;;;;;;11.10;10.40;;;28.80;1.00;;;;;;5057055;28;20410;-58
2022/08/09 16:11:44;;;;;;;8.97;8.67;;;28.80;1.00;;;;;;5056795;28;20186;-58
2022/08/09 16:14:10;;;;;;;9.40;9.10;;;28.80;1.00;;;;;;5075227;28;20547;-57
2022/08/09 16:16:38;;;;;;;9.27;8.97;;;28.90;1.00;;;;;;5056620;28;20181;-60
2022/08/09 16:19:08;;;;;;;9.80;9.30;;;28.90;1.00;;;;;;5056981;28;20233;-60
2022/08/09 16:21:39;;;;;;;10.17;9.80;;;28.80;1.00;;;;;;5056942;28;20414;-60
2022/08/09 16:24:08;;;;;;;9.17;8.80;;;28.70;1.00;;;;;;5056774;28;20457;-60
2022/08/09 16:26:35;;;;;;;9.97;9.50;;;28.70;1.00;;;;;;5056869;28;20515;-60
2022/08/09 16:29:01;;;;;;;9.27;8.97;;;28.70;1.00;;;;;;5074728;28;20422;-60
2022/08/09 16:31:27;;;;;;;9.33;8.83;;;28.70;1.00;;;;;;5056293;28;20785;-60
2022/08/09 16:33:52;;;;;;;9.40;9.00;;;28.70;1.00;;;;;;5056662;28;20467;-60
2022/08/09 16:36:18;;;;;;;9.70;9.40;;;28.70;1.00;;;;;;5056908;28;20274;-60
2022/08/09 16:38:44;;;;;;;9.23;8.93;;;28.70;1.00;;;;;;5056374;28;20215;-59
2022/08/09 16:41:10;;;;;;;9.50;9.20;;;28.80;1.00;;;;;;5056510;28;20631;-60
2022/08/09 16:43:36;;;;;;;9.70;9.30;;;28.70;1.00;;;;;;5056712;28;20420;-60
2022/08/09 16:46:02;;;;;;;9.93;9.53;;;28.70;1.00;;;;;;5056423;28;20425;-60
2022/08/09 16:48:28;;;;;;;9.13;8.73;;;28.70;1.00;;;;;;5056596;28;20194;-60
2022/08/09 16:50:53;;;;;;;9.87;9.47;;;28.60;1.00;;;;;;5056332;28;20198;-60
2022/08/09 16:53:20;;;;;;;9.70;9.30;;;28.60;1.00;;;;;;5052037;28;20187;-60
2022/08/09 16:55:47;;;;;;;10.40;10.00;;;28.70;1.00;;;;;;5064309;28;20190;-60
2022/08/09 16:58:14;;;;;;;10.73;10.10;;;28.70;1.00;;;;;;5061583;28;20453;-60
2022/08/09 17:00:40;;;;;;;10.90;10.40;;;28.60;1.00;;;;;;5055888;28;20429;-60
2022/08/09 17:03:05;;;;;;;11.37;10.67;;;28.60;1.00;;;;;;5056102;28;20433;-60
2022/08/09 17:05:31;;;;;;;10.10;9.77;;;28.60;1.00;;;;;;5056602;28;20186;-60
2022/08/09 17:07:57;;;;;;;10.00;9.60;;;28.50;1.00;;;;;;5056130;28;20509;-60
2022/08/09 17:10:22;;;;;;;10.30;9.90;;;28.60;1.00;;;;;;5056358;28;20285;-60
2022/08/09 17:12:48;;;;;;;10.30;9.90;;;28.50;1.00;;;;;;5056114;28;20264;-61
2022/08/09 17:15:15;;;;;;;12.20;11.20;;;28.40;1.00;;;;;;5063651;28;20187;-61
2022/08/09 17:17:42;;;;;;;10.87;10.37;;;28.40;1.00;;;;;;5055573;28;20300;-60
2022/08/09 17:20:09;;;;;;;10.43;10.03;;;28.40;1.00;;;;;;5055903;28;20422;-60
2022/08/09 17:22:35;;;;;;;10.80;10.30;;;28.40;1.00;;;;;;5055642;28;20429;-61
2022/08/09 17:25:03;;;;;;;12.37;11.53;;;28.30;1.00;;;;;;5074001;28;20751;-60
2022/08/09 17:27:29;;;;;;;11.27;10.57;;;28.30;1.00;;;;;;5055939;28;20449;-60
2022/08/09 17:29:55;;;;;;;11.37;10.97;;;28.20;1.00;;;;;;5055102;28;20863;-60
2022/08/09 17:32:20;;;;;;;10.93;10.53;;;28.10;1.00;;;;;;5055750;28;20190;-60
2022/08/09 17:34:47;;;;;;;11.33;10.83;;;28.00;1.00;;;;;;5055873;28;20457;-60
2022/08/09 17:37:12;;;;;;;10.00;9.60;;;28.00;1.00;;;;;;5058080;28;20309;-60
2022/08/09 17:39:38;;;;;;;10.47;10.07;;;28.00;1.00;;;;;;5072425;28;20488;-60
2022/08/09 17:42:05;;;;;;;11.00;10.50;;;28.10;1.00;;;;;;5072320;28;20237;-60
2022/08/09 17:44:31;;;;;;;11.03;10.63;;;28.10;1.00;;;;;;5070751;28;20472;-60
2022/08/09 17:46:56;;;;;;;12.87;12.07;;;28.00;1.00;;;;;;5055413;28;20928;-60
2022/08/09 17:49:22;;;;;;;12.90;12.20;;;28.00;1.00;;;;;;5055656;28;20635;-59
2022/08/09 17:51:48;;;;;;;10.13;9.73;;;27.90;1.00;;;;;;5055100;28;20184;-59
2022/08/09 17:54:15;;;;;;;11.13;10.73;;;27.90;1.00;;;;;;5089041;28;20183;-59
2022/08/09 17:56:41;;;;;;;10.80;10.30;;;27.80;1.00;;;;;;5055020;28;20425;-59
2022/08/09 17:59:08;;;;;;;10.70;10.20;;;27.80;1.00;;;;;;5055013;28;20417;-61
2022/08/09 18:01:34;;;;;;;11.27;10.67;;;27.80;1.00;;;;;;5055013;28;20885;-62
2022/08/09 18:04:00;;;;;;;11.07;10.57;;;27.70;1.00;;;;;;5055137;28;20424;-62
2022/08/09 18:06:26;;;;;;;11.50;10.90;;;27.70;1.00;;;;;;5054800;28;20183;-61
2022/08/09 18:08:51;;;;;;;10.37;9.93;;;27.60;1.00;;;;;;5054998;28;20186;-61
2022/08/09 18:11:18;;;;;;;10.90;10.40;;;27.60;1.00;;;;;;5054702;28;20414;-61
2022/08/09 18:13:43;;;;;;;10.40;10.00;;;27.50;1.00;;;;;;5054426;28;20186;-62
2022/08/09 18:16:09;;;;;;;10.53;10.03;;;27.50;1.00;;;;;;5054970;28;20413;-62
2022/08/09 18:18:35;;;;;;;11.20;10.67;;;27.50;1.00;;;;;;5054611;28;20267;-61
2022/08/09 18:21:02;;;;;;;11.43;10.83;;;27.50;1.00;;;;;;5054314;28;20191;-62
2022/08/09 18:23:28;;;;;;;10.03;9.70;;;27.40;1.00;;;;;;5054871;28;20270;-61
2022/08/09 18:25:53;;;;;;;10.60;10.20;;;27.40;1.00;;;;;;5054597;28;20509;-61
2022/08/09 18:28:20;;;;;;;10.50;10.10;;;27.40;1.00;;;;;;5054073;28;20274;-61
2022/08/09 18:30:46;;;;;;;11.03;10.60;;;27.30;1.00;;;;;;5053628;28;20277;-61
2022/08/09 18:33:12;;;;;;;10.70;10.30;;;27.30;1.00;;;;;;5053509;28;20520;-61
2022/08/09 18:35:37;;;;;;;9.77;9.47;;;27.20;1.00;;;;;;5054222;28;20226;-61
2022/08/09 18:38:03;;;;;;;10.70;10.10;;;27.20;1.00;;;;;;5054341;28;20214;-61
2022/08/09 18:40:29;;;;;;;10.67;10.27;;;27.20;1.20;;;;;;5054236;28;20524;-62
2022/08/09 18:42:54;;;;;;;10.40;9.80;;;27.10;1.00;;;;;;5053667;28;20353;-62
2022/08/09 18:45:20;;;;;;;9.73;9.43;;;27.10;1.00;;;;;;5054357;28;20543;-61
2022/08/09 18:47:45;;;;;;;10.37;9.97;;;27.10;1.00;;;;;;5053616;28;20413;-60
2022/08/09 18:50:11;;;;;;;12.50;11.70;;;27.00;1.00;;;;;;5070398;28;20183;-60
2022/08/09 18:52:37;;;;;;;9.87;9.47;;;27.00;1.10;;;;;;5054278;28;20210;-60
2022/08/09 18:55:03;;;;;;;10.00;9.50;;;27.00;1.20;;;;;;5054078;28;20183;-60
2022/08/09 18:57:29;;;;;;;9.70;9.30;;;27.00;1.10;;;;;;5053894;28;20219;-60
2022/08/09 18:59:55;;;;;;;9.23;8.93;;;26.90;1.30;;;;;;5053818;28;20409;-60
2022/08/09 19:02:22;;;;;;;9.83;9.33;;;26.90;1.40;;;;;;5066387;28;20183;-60
2022/08/09 19:04:47;;;;;;;9.70;9.30;;;26.80;1.40;;;;;;5070734;28;20492;-60
2022/08/09 19:07:13;;;;;;;9.70;9.23;;;26.80;1.50;;;;;;5060186;28;20516;-60
2022/08/09 19:09:39;;;;;;;9.87;9.47;;;26.80;1.60;;;;;;5054246;28;20267;-60
2022/08/09 19:12:07;;;;;;;10.83;10.40;;;26.70;1.70;;;;;;5053820;28;20482;-60
2022/08/09 19:14:33;;;;;;;10.17;9.77;;;26.70;2.00;;;;;;5053686;28;20186;-60
2022/08/09 19:16:59;;;;;;;9.50;9.10;;;26.70;2.00;;;;;;5053649;28;20473;-60
2022/08/09 19:19:25;;;;;;;11.50;11.00;;;26.60;1.90;;;;;;5054180;28;20210;-59
2022/08/09 19:21:51;;;;;;;12.20;11.27;;;26.60;2.20;;;;;;5054091;28;20418;-59
2022/08/09 19:24:16;;;;;;;10.60;10.20;;;26.60;2.10;;;;;;5054236;28;20183;-59
2022/08/09 19:26:42;;;;;;;10.30;9.90;;;26.50;2.20;;;;;;5054226;28;20175;-61
2022/08/09 19:29:10;;;;;;;10.23;9.83;;;26.50;2.30;;;;;;5053844;28;20183;-61
2022/08/09 19:31:36;;;;;;;9.67;9.23;;;26.50;2.40;;;;;;5053895;28;20228;-61
2022/08/09 19:34:02;;;;;;;9.20;8.80;;;26.50;2.40;;;;;;5054063;28;21004;-61
2022/08/09 19:36:28;;;;;;;10.03;9.43;;;26.40;2.50;;;;;;5053761;28;20500;-62
2022/08/09 19:38:53;;;;;;;10.10;9.70;;;26.30;2.50;;;;;;5055011;28;20991;-61
2022/08/09 19:41:19;;;;;;;10.37;9.77;;;26.40;2.60;;;;;;5057746;28;20203;-61
2022/08/09 19:43:45;;;;;;;9.80;9.30;;;26.30;2.70;;;;;;5057553;28;20179;-61
2022/08/09 19:46:11;;;;;;;10.17;9.77;;;26.30;2.80;;;;;;5057599;28;20552;-61
2022/08/09 19:48:36;;;;;;;11.70;11.20;;;26.30;2.90;;;;;;5057536;28;20596;-59
2022/08/09 19:51:02;;;;;;;10.80;10.30;;;26.20;3.10;;;;;;5056901;28;20180;-60
2022/08/09 19:53:28;;;;;;;11.63;11.13;;;26.20;3.10;;;;;;5057374;28;20191;-59
2022/08/09 19:55:53;;;;;;;10.57;9.97;;;26.20;3.60;;;;;;5057246;28;20187;-60
2022/08/09 19:58:19;;;;;;;10.90;10.40;;;26.20;3.30;;;;;;5057200;28;20207;-61
2022/08/09 20:00:45;;;;;;;10.13;9.43;;;26.10;3.20;;;;;;5056946;28;20187;-61
2022/08/09 20:03:12;;;;;;;9.97;9.57;;;26.10;3.40;;;;;;5057359;28;20182;-61
2022/08/09 20:05:38;;;;;;;9.83;9.43;;;26.10;3.50;;;;;;5056830;28;20500;-61
2022/08/09 20:08:04;;;;;;;10.10;9.70;;;26.00;3.50;;;;;;5056928;28;20984;-61
2022/08/09 20:10:31;;;;;;;9.70;9.33;;;26.00;3.50;;;;;;5056932;28;20413;-62
2022/08/09 20:12:57;;;;;;;10.40;10.00;;;26.00;3.50;;;;;;5056560;28;20428;-62
2022/08/09 20:15:23;;;;;;;10.23;9.83;;;26.00;3.50;;;;;;5057068;28;20422;-61
2022/08/09 20:17:49;;;;;;;10.23;9.73;;;26.00;3.50;;;;;;5056630;28;20303;-62
2022/08/09 20:20:14;;;;;;;10.37;9.87;;;25.90;3.50;;;;;;5056353;28;20501;-61
2022/08/09 20:22:43;;;;;;;10.47;9.87;;;25.90;3.70;;;;;;5056672;28;20175;-62
2022/08/09 20:25:09;;;;;;;10.20;9.80;;;25.80;3.80;;;;;;5056856;28;20715;-61
2022/08/09 20:27:35;;;;;;;10.20;9.80;;;25.80;4.00;;;;;;5056452;28;20505;-62
2022/08/09 20:30:01;;;;;;;9.50;9.20;;;25.80;4.10;;;;;;5056584;28;20183;-61
2022/08/09 20:32:27;;;;;;;10.33;9.83;;;25.80;4.00;;;;;;5056839;28;20241;-61
2022/08/09 20:34:52;;;;;;;10.37;9.97;;;25.80;4.10;;;;;;5056274;28;20413;-62
2022/08/09 20:37:18;;;;;;;10.67;10.27;;;25.70;4.10;;;;;;5056417;28;20210;-62
2022/08/09 20:39:44;;;;;;;10.90;10.40;;;25.70;4.30;;;;;;5056361;28;20183;-62
2022/08/09 20:42:09;;;;;;;10.30;9.90;;;25.60;4.30;;;;;;5065909;28;20182;-62
2022/08/09 20:44:36;;;;;;;10.33;9.83;;;25.60;4.50;;;;;;5076551;28;20175;-62
2022/08/09 20:47:02;;;;;;;10.10;9.70;;;25.60;4.60;;;;;;5076645;28;20194;-62
2022/08/09 20:49:28;;;;;;;10.70;10.03;;;25.60;4.70;;;;;;5075643;28;20819;-62
2022/08/09 20:51:54;;;;;;;10.50;10.07;;;25.50;4.60;;;;;;5076324;28;20454;-62
2022/08/09 20:54:20;;;;;;;10.10;9.70;;;25.60;4.80;;;;;;5076355;28;20181;-62
2022/08/09 20:56:47;;;;;;;10.73;10.33;;;25.50;4.80;;;;;;5075739;28;20657;-62
2022/08/09 20:59:12;;;;;;;10.30;9.80;;;25.50;4.90;;;;;;5076123;28;20585;-62
2022/08/09 21:01:38;;;;;;;10.60;10.20;;;25.50;5.20;;;;;;5075943;28;20520;-62
2022/08/09 21:04:04;;;;;;;11.17;10.43;;;25.50;5.30;;;;;;5075859;28;20419;-62
2022/08/09 21:06:30;;;;;;;11.17;10.30;;;25.40;5.20;;;;;;5076275;28;20198;-62
2022/08/09 21:08:55;;;;;;;11.10;10.50;;;25.40;5.20;;;;;;5076090;28;20186;-63
2022/08/09 21:11:21;;;;;;;10.77;10.37;;;25.30;5.40;;;;;;5058781;28;20446;-62
2022/08/09 21:13:47;;;;;;;10.10;9.70;;;25.30;5.40;;;;;;5075807;28;20244;-63
2022/08/09 21:16:12;;;;;;;10.80;10.20;;;25.30;5.60;;;;;;5075988;28;20174;-62
2022/08/09 21:18:38;;;;;;;11.10;10.60;;;25.30;5.80;;;;;;5075540;28;20562;-62
2022/08/09 21:21:04;;;;;;;11.53;10.97;;;25.30;5.80;;;;;;5075764;28;20221;-62
2022/08/09 21:23:29;;;;;;;10.70;10.30;;;25.20;5.80;;;;;;5093912;28;20175;-62
2022/08/09 21:25:55;;;;;;;11.33;10.83;;;25.10;6.10;;;;;;5075345;28;20182;-59
2022/08/09 21:28:28;;;;;;;10.70;10.20;;;25.10;6.50;;;;;;5075730;28;20178;-59
2022/08/09 21:30:53;;;;;;;10.90;10.40;;;25.00;6.70;;;;;;5075304;28;20755;-59
2022/08/09 21:33:19;;;;;;;10.90;10.33;;;25.00;6.80;;;;;;5075485;28;20417;-59
2022/08/09 21:35:47;;;;;;;10.63;10.13;;;25.00;6.70;;;;;;5075499;28;20178;-59
2022/08/09 21:38:16;;;;;;;11.40;10.80;;;24.90;7.10;;;;;;5075650;28;20210;-59
2022/08/09 21:40:42;;;;;;;11.20;10.70;;;24.90;7.00;;;;;;5074730;28;20508;-59
2022/08/09 21:43:09;;;;;;;11.53;10.83;;;24.90;7.40;;;;;;5075530;28;20821;-59
2022/08/09 21:45:35;;;;;;;12.00;11.40;;;24.90;7.20;;;;;;5075254;28;20189;-59
2022/08/09 21:48:01;;;;;;;11.53;11.03;;;24.90;7.50;;;;;;5074863;28;20429;-59
2022/08/09 21:50:27;;;;;;;11.50;11.00;;;24.90;7.40;;;;;;5075010;28;20182;-62
2022/08/09 21:52:53;;;;;;;11.23;10.73;;;24.90;7.50;;;;;;5075175;28;20435;-62
2022/08/09 21:55:19;;;;;;;11.57;10.97;;;24.80;7.40;;;;;;5093109;28;20417;-62
2022/08/09 21:57:45;;;;;;;11.40;10.90;;;24.80;7.40;;;;;;5074904;28;20457;-62
2022/08/09 22:00:16;;;;;;;11.27;10.70;;;24.80;7.40;;;;;;5075007;28;20510;-62
2022/08/09 22:02:42;;;;;;;11.00;10.30;;;24.70;7.40;;;;;;5073798;28;20537;-62
2022/08/09 22:05:08;;;;;;;11.03;10.43;;;24.80;7.40;;;;;;5068211;28;20464;-62
2022/08/09 22:07:34;;;;;;;11.10;10.70;;;24.70;7.40;;;;;;5054881;28;20202;-62
2022/08/09 22:09:59;;;;;;;10.90;10.30;;;24.70;7.40;;;;;;5054364;28;20896;-62
2022/08/09 22:12:25;;;;;;;11.27;10.77;;;24.70;7.80;;;;;;5054797;28;20593;-62
2022/08/09 22:14:51;;;;;;;11.60;11.00;;;24.70;7.70;;;;;;5054733;28;20179;-62
2022/08/09 22:17:16;;;;;;;11.00;10.60;;;24.70;7.90;;;;;;5054253;28;20330;-62
2022/08/09 22:19:42;;;;;;;10.70;10.30;;;24.50;8.20;;;;;;5054554;28;20567;-62
2022/08/09 22:22:08;;;;;;;11.20;10.70;;;24.50;8.40;;;;;;5054403;28;20179;-62
2022/08/09 22:24:33;;;;;;;11.77;11.17;;;24.40;8.20;;;;;;5054594;28;20218;-62
2022/08/09 22:26:59;;;;;;;11.17;10.67;;;24.20;8.60;;;;;;5072167;28;20211;-62
2022/08/09 22:29:25;;;;;;;11.20;10.70;;;24.10;8.90;;;;;;5054602;28;20231;-62